createdAt,value
2018-10-19T00:01:44.853Z,94.20
2018-10-19T00:04:12.761Z,138.00
2018-10-19T00:06:40.639Z,112.70
2018-10-19T00:09:09.975Z,106.97
2018-10-19T00:11:37.834Z,147.30
2018-10-19T00:14:05.923Z,192.93
2018-10-19T00:16:33.779Z,116.30
2018-10-19T00:19:01.652Z,208.33
2018-10-19T00:21:29.481Z,175.10
2018-10-19T00:23:58.608Z,221.90
2018-10-19T00:26:26.459Z,202.10
2018-10-19T00:28:54.297Z,158.77
2018-10-19T00:31:22.116Z,192.27
2018-10-19T00:33:49.947Z,280.30
2018-10-19T00:36:17.744Z,118.57
2018-10-19T00:38:45.529Z,228.27
2018-10-19T00:41:13.452Z,131.37
2018-10-19T00:43:42.188Z,127.00
2018-10-19T00:46:10.001Z,192.90
2018-10-19T00:48:37.988Z,166.70
2018-10-19T00:51:05.901Z,259.37
2018-10-19T00:53:33.711Z,182.67
2018-10-19T00:56:01.517Z,181.30
2018-10-19T00:58:29.431Z,282.00
2018-10-19T01:00:57.240Z,230.17
2018-10-19T01:03:25.078Z,181.33
2018-10-19T01:05:52.891Z,232.63
2018-10-19T01:08:20.748Z,140.07
2018-10-19T01:10:48.880Z,408.27
2018-10-19T01:13:16.696Z,367.13
2018-10-19T01:15:44.544Z,267.80
2018-10-19T01:18:13.156Z,330.93
2018-10-19T01:20:41.000Z,409.23
2018-10-19T01:23:08.929Z,208.00
2018-10-19T01:25:39.948Z,337.10
2018-10-19T01:28:08.453Z,355.77
2018-10-19T01:30:36.297Z,249.00
2018-10-19T01:33:04.178Z,277.10
2018-10-19T01:35:31.981Z,175.07
2018-10-19T01:37:59.788Z,306.37
2018-10-19T01:40:27.849Z,154.33
2018-10-19T01:42:55.660Z,248.73
2018-10-19T01:47:42.973Z,198.07
2018-10-19T01:50:11.451Z,218.57
2018-10-19T01:52:40.043Z,118.80
2018-10-19T01:55:07.909Z,263.73
2018-10-19T01:57:35.774Z,235.37
2018-10-19T02:00:04.261Z,168.00
2018-10-19T02:02:32.327Z,130.43
2018-10-19T02:05:00.194Z,205.43
2018-10-19T02:07:27.992Z,169.20
2018-10-19T02:09:55.835Z,179.90
2018-10-19T02:12:23.687Z,131.70
2018-10-19T02:14:51.501Z,133.53
2018-10-19T02:17:19.355Z,231.90
2018-10-19T02:19:47.215Z,233.13
2018-10-19T02:22:15.027Z,146.57
2018-10-19T02:24:42.904Z,149.10
2018-10-19T02:27:10.809Z,236.03
2018-10-19T02:29:39.331Z,263.63
2018-10-19T02:32:07.186Z,211.47
2018-10-19T02:34:35.062Z,326.20
2018-10-19T02:37:02.865Z,272.23
2018-10-19T02:39:30.665Z,200.27
2018-10-19T02:41:58.467Z,180.33
2018-10-19T02:44:26.564Z,212.03
2018-10-19T02:46:54.426Z,188.67
2018-10-19T02:49:22.271Z,142.43
2018-10-19T02:51:50.079Z,191.57
2018-10-19T02:54:17.908Z,218.37
2018-10-19T02:56:45.745Z,198.23
2018-10-19T02:59:13.572Z,172.50
2018-10-19T03:01:41.401Z,159.40
2018-10-19T03:04:09.280Z,209.50
2018-10-19T03:06:37.176Z,132.43
2018-10-19T03:09:08.306Z,269.20
2018-10-19T03:11:36.219Z,144.57
2018-10-19T03:14:04.077Z,137.73
2018-10-19T03:16:32.199Z,228.43
2018-10-19T03:19:00.051Z,213.00
2018-10-19T03:21:27.886Z,347.93
2018-10-19T03:23:55.734Z,473.53
2018-10-19T03:26:23.561Z,385.03
2018-10-19T03:28:51.954Z,365.50
2018-10-19T03:31:19.801Z,208.63
2018-10-19T03:33:47.674Z,281.97
2018-10-19T03:36:15.566Z,199.40
2018-10-19T03:38:43.410Z,188.23
2018-10-19T03:41:11.366Z,139.10
2018-10-19T03:43:39.206Z,131.70
2018-10-19T03:46:07.247Z,266.10
2018-10-19T03:48:35.080Z,192.30
2018-10-19T03:51:03.066Z,214.27
2018-10-19T03:53:30.931Z,278.90
2018-10-19T03:55:58.840Z,236.77
2018-10-19T03:58:26.709Z,354.37
2018-10-19T04:00:54.649Z,183.73
2018-10-19T04:03:22.575Z,368.07
2018-10-19T04:05:50.414Z,293.77
2018-10-19T04:08:18.288Z,288.90
2018-10-19T04:10:46.153Z,325.83
2018-10-19T04:13:14.016Z,221.90
2018-10-19T04:15:41.884Z,227.10
2018-10-19T04:18:09.722Z,274.20
2018-10-19T04:20:37.590Z,365.67
2018-10-19T04:23:07.473Z,422.33
2018-10-19T04:25:36.419Z,327.87
2018-10-19T04:28:05.185Z,194.57
2018-10-19T04:30:33.774Z,317.70
2018-10-19T04:33:02.155Z,324.20
2018-10-19T04:35:30.006Z,371.00
2018-10-19T04:37:57.858Z,230.63
2018-10-19T04:40:25.729Z,339.23
2018-10-19T04:42:53.616Z,343.90
2018-10-19T04:45:21.485Z,332.80
2018-10-19T04:47:49.435Z,248.07
2018-10-19T04:50:17.277Z,267.80
2018-10-19T04:52:45.141Z,240.13
2018-10-19T04:55:18.115Z,206.80
2018-10-19T04:57:45.986Z,319.10
2018-10-19T05:00:14.811Z,263.87
2018-10-19T05:02:43.454Z,215.73
2018-10-19T05:05:11.367Z,262.87
2018-10-19T05:07:39.430Z,278.07
2018-10-19T05:10:08.537Z,287.73
2018-10-19T05:12:36.436Z,213.90
2018-10-19T05:15:05.358Z,256.10
2018-10-19T05:17:33.265Z,339.67
2018-10-19T05:20:01.136Z,247.90
2018-10-19T05:22:29.192Z,293.53
2018-10-19T05:24:57.073Z,268.63
2018-10-19T05:27:24.931Z,236.27
2018-10-19T05:29:52.780Z,283.20
2018-10-19T05:32:20.637Z,217.83
2018-10-19T05:34:48.741Z,245.70
2018-10-19T05:37:16.571Z,265.13
2018-10-19T05:39:44.446Z,237.33
2018-10-19T05:42:12.640Z,230.10
2018-10-19T05:44:40.826Z,220.17
2018-10-19T05:47:09.025Z,245.63
2018-10-19T05:49:36.876Z,243.53
2018-10-19T05:52:04.815Z,264.40
2018-10-19T05:54:32.696Z,225.83
2018-10-19T05:57:00.744Z,246.50
2018-10-19T05:59:28.613Z,198.90
2018-10-19T06:01:56.815Z,246.47
2018-10-19T06:04:24.980Z,198.13
2018-10-19T06:06:52.902Z,203.80
2018-10-19T06:09:20.752Z,202.90
2018-10-19T06:11:48.607Z,215.13
2018-10-19T06:14:16.824Z,193.00
2018-10-19T06:16:44.622Z,192.53
2018-10-19T06:19:12.457Z,205.77
2018-10-19T06:21:40.265Z,176.77
2018-10-19T06:24:09.336Z,203.30
2018-10-19T06:26:37.192Z,175.07
2018-10-19T06:29:05.547Z,193.60
2018-10-19T06:31:34.543Z,185.77
2018-10-19T06:34:02.411Z,188.03
2018-10-19T06:36:30.299Z,192.53
2018-10-19T06:38:58.138Z,209.83
2018-10-19T06:41:26.316Z,178.67
2018-10-19T06:43:54.160Z,190.33
2018-10-19T06:46:22.061Z,185.27
2018-10-19T06:48:50.221Z,199.87
2018-10-19T06:51:18.067Z,196.73
2018-10-19T06:53:46.216Z,187.03
2018-10-19T06:56:14.191Z,214.70
2018-10-19T06:58:42.478Z,180.03
2018-10-19T07:01:10.401Z,187.97
2018-10-19T07:03:38.266Z,194.87
2018-10-19T07:06:06.306Z,190.60
2018-10-19T07:08:34.178Z,173.43
2018-10-19T07:11:02.419Z,211.47
2018-10-19T07:13:30.238Z,218.67
2018-10-19T07:15:58.441Z,199.20
2018-10-19T07:18:26.268Z,200.67
2018-10-19T07:20:54.168Z,205.33
2018-10-19T07:23:22.019Z,223.60
2018-10-19T07:25:49.892Z,199.10
2018-10-19T07:28:18.803Z,201.07
2018-10-19T07:30:46.646Z,203.63
2018-10-19T07:33:14.600Z,176.60
2018-10-19T07:35:42.449Z,173.10
2018-10-19T07:38:10.404Z,178.57
2018-10-19T07:40:38.902Z,157.40
2018-10-19T07:43:07.099Z,154.77
2018-10-19T07:45:34.992Z,164.37
2018-10-19T07:48:03.772Z,159.40
2018-10-19T07:50:31.469Z,163.67
2018-10-19T07:53:00.008Z,161.37
2018-10-19T07:55:27.845Z,170.87
2018-10-19T07:57:55.716Z,168.40
2018-10-19T08:00:23.599Z,166.87
2018-10-19T08:02:51.805Z,169.70
2018-10-19T08:05:20.277Z,159.50
2018-10-19T08:07:48.131Z,142.33
2018-10-19T08:10:16.106Z,152.93
2018-10-19T08:12:43.958Z,152.23
2018-10-19T08:15:11.842Z,152.77
2018-10-19T08:17:39.722Z,156.40
2018-10-19T08:20:08.353Z,152.10
2018-10-19T08:22:36.457Z,145.23
2018-10-19T08:25:05.124Z,146.17
2018-10-19T08:27:33.332Z,141.80
2018-10-19T08:30:01.403Z,147.77
2018-10-19T08:32:29.301Z,135.20
2018-10-19T08:34:57.205Z,143.40
2018-10-19T08:37:25.768Z,149.00
2018-10-19T08:39:53.695Z,135.70
2018-10-19T08:42:21.540Z,140.37
2018-10-19T08:44:49.393Z,134.93
2018-10-19T08:47:17.268Z,141.00
2018-10-19T08:49:45.162Z,139.73
2018-10-19T08:52:13.012Z,148.37
2018-10-19T08:54:40.968Z,144.47
2018-10-19T08:57:08.790Z,139.83
2018-10-19T08:59:36.636Z,144.37
2018-10-19T09:02:04.672Z,144.60
2018-10-19T09:04:32.516Z,137.50
2018-10-19T09:07:00.339Z,132.53
2018-10-19T09:09:28.500Z,128.13
2018-10-19T09:11:56.618Z,129.97
2018-10-19T09:14:38.064Z,139.13
2018-10-19T09:17:06.009Z,144.50
2018-10-19T09:19:33.786Z,137.17
2018-10-19T09:22:01.667Z,133.03
2018-10-19T09:24:30.176Z,147.63
2018-10-19T09:26:58.082Z,127.30
2018-10-19T09:29:25.949Z,134.47
2018-10-19T09:31:54.075Z,127.43
2018-10-19T09:34:21.921Z,134.57
2018-10-19T09:36:49.976Z,122.73
2018-10-19T09:39:17.752Z,126.10
2018-10-19T09:41:45.528Z,128.80
2018-10-19T09:44:13.365Z,131.50
2018-10-19T09:46:41.661Z,132.07
2018-10-19T09:49:11.539Z,137.43
2018-10-19T09:51:39.963Z,128.50
2018-10-19T09:54:08.354Z,128.40
2018-10-19T09:56:36.515Z,129.57
2018-10-19T09:59:05.089Z,132.83
2018-10-19T10:01:33.013Z,121.40
2018-10-19T10:04:00.887Z,128.03
2018-10-19T10:06:28.937Z,120.67
2018-10-19T10:08:56.866Z,125.23
2018-10-19T10:11:24.721Z,127.10
2018-10-19T10:13:52.839Z,129.10
2018-10-19T10:16:20.773Z,123.30
2018-10-19T10:18:48.846Z,118.87
2018-10-19T10:21:16.937Z,119.17
2018-10-19T10:23:44.924Z,115.40
2018-10-19T10:26:13.548Z,118.37
2018-10-19T10:28:41.462Z,119.43
2018-10-19T10:31:09.411Z,114.03
2018-10-19T10:33:37.494Z,124.73
2018-10-19T10:36:05.400Z,110.03
2018-10-19T10:38:33.278Z,110.97
2018-10-19T10:41:02.445Z,129.40
2018-10-19T10:43:30.689Z,113.80
2018-10-19T10:45:58.869Z,112.10
2018-10-19T10:48:26.700Z,117.10
2018-10-19T10:50:55.299Z,114.00
2018-10-19T10:53:23.205Z,118.53
2018-10-19T10:55:51.110Z,118.50
2018-10-19T10:58:18.981Z,117.87
2018-10-19T11:00:47.199Z,123.93
2018-10-19T11:03:15.068Z,114.37
2018-10-19T11:05:43.232Z,109.20
2018-10-19T11:08:11.105Z,109.33
2018-10-19T11:10:39.230Z,106.77
2018-10-19T11:13:07.178Z,117.10
2018-10-19T11:15:35.003Z,106.43
2018-10-19T11:18:03.839Z,109.17
2018-10-19T11:20:31.708Z,110.47
2018-10-19T11:22:59.619Z,112.07
2018-10-19T11:25:27.513Z,111.37
2018-10-19T11:27:55.443Z,105.93
2018-10-19T11:30:23.321Z,105.70
2018-10-19T11:32:51.185Z,104.67
2018-10-19T11:35:19.406Z,105.13
2018-10-19T11:37:47.332Z,111.97
2018-10-19T11:40:32.065Z,101.70
2018-10-19T11:43:00.069Z,108.13
2018-10-19T11:45:29.367Z,109.47
2018-10-19T11:47:57.188Z,116.67
2018-10-19T11:50:25.670Z,117.90
2018-10-19T11:52:53.545Z,108.27
2018-10-19T11:55:21.420Z,103.53
2018-10-19T11:57:50.148Z,102.80
2018-10-19T12:00:18.321Z,107.40
2018-10-19T12:02:46.373Z,107.50
2018-10-19T12:05:14.556Z,109.30
2018-10-19T12:07:42.525Z,101.27
2018-10-19T12:10:11.479Z,112.70
2018-10-19T12:12:39.904Z,111.37
2018-10-19T12:15:09.714Z,107.17
2018-10-19T12:17:38.294Z,112.40
2018-10-19T12:20:08.398Z,103.07
2018-10-19T12:22:36.272Z,102.30
2018-10-19T12:25:05.725Z,122.30
2018-10-19T12:27:33.616Z,111.97
2018-10-19T12:30:01.485Z,112.13
2018-10-19T12:32:29.377Z,118.60
2018-10-19T12:34:57.817Z,120.43
2018-10-19T12:37:26.340Z,116.40
2018-10-19T12:39:55.061Z,111.67
2018-10-19T12:42:22.984Z,109.93
2018-10-19T12:44:50.873Z,111.30
2018-10-19T12:47:42.790Z,114.93
2018-10-19T12:50:10.655Z,116.57
2018-10-19T12:52:38.540Z,109.40
2018-10-19T12:55:07.918Z,110.43
2018-10-19T12:57:36.011Z,105.27
2018-10-19T13:00:05.089Z,104.57
2018-10-19T13:02:32.939Z,104.63
2018-10-19T13:05:00.830Z,115.90
2018-10-19T13:07:28.666Z,109.27
2018-10-19T13:09:56.517Z,116.97
2018-10-19T13:12:24.648Z,109.27
2018-10-19T13:14:52.686Z,110.30
2018-10-19T13:17:20.573Z,115.47
2018-10-19T13:19:48.525Z,116.17
2018-10-19T13:22:16.364Z,123.23
2018-10-19T13:24:44.194Z,113.87
2018-10-19T13:27:12.089Z,124.13
2018-10-19T13:29:39.942Z,118.13
2018-10-19T13:32:07.912Z,110.27
2018-10-19T13:34:36.068Z,115.73
2018-10-19T13:37:03.980Z,114.30
2018-10-19T13:39:32.115Z,121.77
2018-10-19T13:42:00.060Z,117.00
2018-10-19T13:44:27.925Z,130.63
2018-10-19T13:46:55.767Z,127.03
2018-10-19T13:49:23.632Z,109.20
2018-10-19T13:51:51.492Z,122.93
2018-10-19T13:54:19.471Z,132.97
2018-10-19T13:56:47.300Z,124.10
2018-10-19T13:59:15.182Z,133.47
2018-10-19T14:01:42.964Z,124.23
2018-10-19T14:04:10.844Z,129.77
2018-10-19T14:06:38.721Z,145.30
2018-10-19T14:09:08.261Z,132.13
2018-10-19T14:11:36.159Z,134.80
2018-10-19T14:14:04.336Z,132.80
2018-10-19T14:16:32.187Z,127.73
2018-10-19T14:19:00.069Z,142.13
2018-10-19T14:21:28.110Z,131.47
2018-10-19T14:23:55.979Z,131.23
2018-10-19T14:26:23.805Z,141.33
2018-10-19T14:28:51.673Z,133.73
2018-10-19T14:31:19.774Z,132.97
2018-10-19T14:33:47.956Z,138.40
2018-10-19T14:36:15.836Z,144.40
2018-10-19T14:38:43.687Z,133.47
2018-10-19T14:41:11.538Z,143.87
2018-10-19T14:43:39.656Z,150.20
2018-10-19T14:46:07.496Z,144.20
2018-10-19T14:48:35.568Z,144.13
2018-10-19T14:51:03.796Z,152.43
2018-10-19T14:53:32.228Z,156.97
2018-10-19T14:56:00.131Z,157.23
2018-10-19T14:58:28.010Z,152.43
2018-10-19T15:00:56.120Z,154.53
2018-10-19T15:03:24.010Z,146.30
2018-10-19T15:05:51.847Z,145.53
2018-10-19T15:08:19.688Z,159.17
2018-10-19T15:10:47.794Z,139.17
2018-10-19T15:13:15.481Z,148.73
2018-10-19T15:15:43.313Z,148.83
2018-10-19T15:18:11.168Z,158.63
2018-10-19T15:20:39.270Z,156.10
2018-10-19T15:23:07.130Z,159.47
2018-10-19T15:25:34.984Z,173.80
2018-10-19T15:28:02.883Z,170.03
2018-10-19T15:30:30.723Z,157.90
2018-10-19T15:32:58.640Z,158.37
2018-10-19T15:35:26.492Z,160.40
2018-10-19T15:37:54.451Z,169.50
2018-10-19T15:40:22.298Z,178.37
2018-10-19T15:42:50.172Z,159.37
2018-10-19T15:45:18.037Z,177.10
2018-10-19T15:47:45.882Z,166.90
2018-10-19T15:50:13.768Z,163.20
2018-10-19T15:52:41.690Z,185.00
2018-10-19T15:55:09.503Z,192.47
2018-10-19T15:57:37.639Z,168.20
2018-10-19T16:00:07.483Z,174.90
2018-10-19T16:02:35.574Z,173.60
2018-10-19T16:05:03.712Z,174.50
2018-10-19T16:07:31.568Z,164.27
2018-10-19T16:10:00.888Z,173.93
2018-10-19T16:12:28.804Z,186.07
2018-10-19T16:14:56.689Z,177.90
2018-10-19T16:17:24.770Z,213.70
2018-10-19T16:19:52.624Z,220.43
2018-10-19T16:22:20.521Z,192.40
2018-10-19T16:24:48.474Z,196.90
2018-10-19T16:27:16.510Z,186.27
2018-10-19T16:29:44.329Z,203.20
2018-10-19T16:32:12.788Z,196.53
2018-10-19T16:34:40.769Z,200.03
2018-10-19T16:37:08.629Z,205.87
2018-10-19T16:39:36.495Z,200.80
2018-10-19T16:42:04.380Z,219.10
2018-10-19T16:44:32.247Z,201.77
2018-10-19T16:47:00.145Z,217.43
2018-10-19T16:49:28.059Z,197.10
2018-10-19T16:51:56.011Z,223.07
2018-10-19T16:54:23.922Z,229.23
2018-10-19T16:56:51.774Z,195.73
2018-10-19T16:59:20.225Z,201.47
2018-10-19T17:01:48.065Z,207.63
2018-10-19T17:04:16.005Z,214.57
2018-10-19T17:06:43.799Z,224.50
2018-10-19T17:09:13.016Z,205.13
2018-10-19T17:11:41.439Z,202.30
2018-10-19T17:14:09.853Z,215.73
2018-10-19T17:16:38.165Z,202.93
2018-10-19T17:19:06.502Z,220.20
2018-10-19T17:21:35.049Z,211.20
2018-10-19T17:24:03.579Z,201.70
2018-10-19T17:26:31.496Z,228.53
2018-10-19T17:28:59.754Z,217.13
2018-10-19T17:31:28.000Z,208.80
2018-10-19T17:33:56.458Z,220.40
2018-10-19T17:36:24.312Z,226.13
2018-10-19T17:38:52.460Z,203.77
2018-10-19T17:41:20.454Z,201.57
2018-10-19T17:43:48.330Z,211.13
2018-10-19T17:46:16.619Z,217.50
2018-10-19T17:48:44.578Z,214.50
2018-10-19T17:51:12.854Z,219.97
2018-10-19T17:53:40.872Z,212.57
2018-10-19T17:56:08.757Z,204.23
2018-10-19T17:58:36.619Z,214.73
2018-10-19T18:01:04.866Z,211.87
2018-10-19T18:03:33.103Z,214.10
2018-10-19T18:06:00.990Z,220.23
2018-10-19T18:08:29.137Z,210.67
2018-10-19T18:10:57.035Z,202.57
2018-10-19T18:13:25.195Z,198.73
2018-10-19T18:15:53.073Z,218.40
2018-10-19T18:18:20.921Z,211.47
2018-10-19T18:20:48.771Z,219.00
2018-10-19T18:23:17.348Z,227.30
2018-10-19T18:25:45.353Z,247.03
2018-10-19T18:28:13.202Z,225.17
2018-10-19T18:30:41.048Z,229.03
2018-10-19T18:33:08.942Z,253.47
2018-10-19T18:35:36.885Z,205.57
2018-10-19T18:38:04.970Z,211.90
2018-10-19T18:40:32.850Z,209.13
2018-10-19T18:43:01.034Z,218.60
2018-10-19T18:45:28.895Z,248.27
2018-10-19T18:47:57.076Z,218.30
2018-10-19T18:50:25.059Z,222.07
2018-10-19T18:52:52.924Z,247.40
2018-10-19T18:55:20.889Z,240.53
2018-10-19T18:57:48.694Z,267.57
2018-10-19T19:00:16.552Z,269.27
2018-10-19T19:02:44.432Z,340.63
2018-10-19T19:05:12.608Z,357.90
2018-10-19T19:07:40.469Z,330.20
2018-10-19T19:10:10.214Z,372.47
2018-10-19T19:12:38.049Z,314.67
2018-10-19T19:15:06.786Z,359.83
2018-10-19T19:17:34.652Z,392.40
2018-10-19T19:20:36.101Z,339.80
2018-10-19T19:23:04.010Z,355.03
2018-10-19T19:25:37.603Z,326.27
2018-10-19T19:28:05.723Z,325.03
2018-10-19T19:30:33.600Z,386.57
2018-10-19T19:33:08.142Z,363.53
2018-10-19T19:35:36.007Z,406.90
2018-10-19T19:38:04.227Z,368.00
2018-10-19T19:40:37.709Z,362.47
2018-10-19T19:43:05.970Z,323.10
2018-10-19T19:45:33.833Z,322.40
2018-10-19T19:48:07.708Z,318.20
2018-10-19T19:50:35.569Z,293.03
2018-10-19T19:53:03.614Z,338.83
2018-10-19T19:55:31.497Z,365.23
2018-10-19T19:58:00.645Z,357.13
2018-10-19T20:00:29.019Z,344.67
2018-10-19T20:02:57.247Z,355.40
2018-10-19T20:05:25.461Z,342.20
2018-10-19T20:07:53.546Z,337.37
2018-10-19T20:10:21.558Z,387.90
2018-10-19T20:12:49.466Z,318.13
2018-10-19T20:15:17.489Z,254.73
2018-10-19T20:17:45.346Z,267.77
2018-10-19T20:20:13.340Z,260.17
2018-10-19T20:22:42.042Z,263.97
2018-10-19T20:25:11.181Z,259.90
2018-10-19T20:27:39.625Z,255.27
2018-10-19T20:30:10.666Z,231.40
2018-10-19T20:32:39.041Z,231.53
2018-10-19T20:35:06.907Z,231.50
2018-10-19T20:37:35.720Z,221.33
2018-10-19T20:40:04.383Z,258.60
2018-10-19T20:42:32.281Z,262.03
2018-10-19T20:45:00.230Z,220.40
2018-10-19T20:47:28.221Z,291.77
2018-10-19T20:49:56.210Z,502.77
2018-10-19T20:52:24.098Z,393.47
2018-10-19T20:54:51.964Z,341.43
2018-10-19T20:57:20.198Z,426.17
2018-10-19T20:59:48.106Z,368.60
2018-10-19T21:02:16.240Z,515.97
2018-10-19T21:04:44.158Z,483.80
2018-10-19T21:07:12.906Z,397.83
2018-10-19T21:09:40.903Z,534.83
2018-10-19T21:12:08.820Z,575.87
2018-10-19T21:14:36.759Z,382.40
2018-10-19T21:17:04.839Z,399.97
2018-10-19T21:19:32.803Z,439.13
2018-10-19T21:22:00.675Z,493.47
2018-10-19T21:24:29.163Z,630.13
2018-10-19T21:26:57.102Z,497.30
2018-10-19T21:29:25.046Z,466.73
2018-10-19T21:31:53.061Z,476.17
2018-10-19T21:34:20.952Z,384.87
2018-10-19T21:36:49.596Z,391.17
2018-10-19T21:39:17.466Z,386.57
2018-10-19T21:41:45.333Z,285.10
2018-10-19T21:44:13.302Z,378.63
2018-10-19T21:46:41.115Z,466.37
2018-10-19T21:49:08.984Z,270.27
2018-10-19T21:51:36.919Z,439.20
2018-10-19T21:54:05.418Z,339.23
2018-10-19T21:56:33.248Z,424.63
2018-10-19T21:59:01.110Z,288.67
2018-10-19T22:01:29.009Z,489.57
2018-10-19T22:03:56.849Z,375.07
2018-10-19T22:06:24.908Z,240.43
2018-10-19T22:08:52.798Z,536.80
2018-10-19T22:11:21.410Z,396.27
2018-10-19T22:13:49.317Z,379.53
2018-10-19T22:16:17.160Z,380.80
2018-10-19T22:18:45.006Z,399.93
2018-10-19T22:21:12.921Z,390.90
2018-10-19T22:23:40.768Z,280.53
2018-10-19T22:26:08.700Z,488.80
2018-10-19T22:28:36.571Z,272.97
2018-10-19T22:31:05.041Z,495.13
2018-10-19T22:33:32.886Z,439.30
2018-10-19T22:36:00.740Z,299.53
2018-10-19T22:38:28.811Z,438.13
2018-10-19T22:40:56.713Z,384.40
2018-10-19T22:43:24.541Z,393.50
2018-10-19T22:45:52.410Z,348.97
2018-10-19T22:48:20.936Z,388.80
2018-10-19T22:50:49.144Z,422.97
2018-10-19T22:53:16.984Z,478.30
2018-10-19T22:55:44.838Z,149.53
2018-10-19T22:58:12.649Z,411.20
2018-10-19T23:00:40.468Z,386.90
2018-10-19T23:03:08.300Z,296.97
2018-10-19T23:05:36.208Z,431.60
2018-10-19T23:08:04.446Z,430.80
2018-10-19T23:10:32.260Z,321.03
2018-10-19T23:13:00.118Z,215.57
2018-10-19T23:15:27.956Z,257.83
2018-10-19T23:17:55.776Z,363.07
2018-10-19T23:20:23.640Z,266.80
2018-10-19T23:22:51.491Z,514.47
2018-10-19T23:25:19.316Z,151.70
2018-10-19T23:27:47.182Z,484.73
2018-10-19T23:30:15.102Z,147.83
2018-10-19T23:32:46.686Z,254.37
2018-10-19T23:35:14.796Z,408.13
2018-10-19T23:37:42.639Z,466.33
2018-10-19T23:40:10.768Z,454.67
2018-10-19T23:42:38.662Z,324.47
2018-10-19T23:45:07.506Z,414.17
2018-10-19T23:47:35.426Z,510.33
2018-10-19T23:50:04.012Z,468.23
2018-10-19T23:52:31.824Z,327.70
2018-10-19T23:54:59.713Z,372.60
2018-10-19T23:57:27.608Z,326.40
2018-10-19T23:59:55.449Z,440.27
